createdAt,value
2023-01-21T00:00:56.257Z,101607.09
2023-01-21T00:03:30.053Z,101603.24
2023-01-21T00:06:02.742Z,101602.27
2023-01-21T00:08:37.325Z,101593.79
2023-01-21T00:11:11.725Z,101594.50
2023-01-21T00:13:46.066Z,101588.97
2023-01-21T00:16:18.773Z,101583.38
2023-01-21T00:18:51.833Z,101581.77
2023-01-21T00:21:25.506Z,101579.45
2023-01-21T00:23:58.643Z,101578.67
2023-01-21T00:26:31.843Z,101584.66
2023-01-21T00:29:05.346Z,101588.64
2023-01-21T00:31:38.201Z,101588.58
2023-01-21T00:34:12.160Z,101587.81
2023-01-21T00:36:45.975Z,101587.77
2023-01-21T00:39:19.338Z,101589.80
2023-01-21T00:41:52.984Z,101591.48
2023-01-21T00:44:26.036Z,101592.73
2023-01-21T00:46:59.121Z,101591.80
2023-01-21T00:49:31.790Z,101596.63
2023-01-21T00:52:04.998Z,101595.38
2023-01-21T00:54:37.650Z,101598.03
2023-01-21T00:57:10.307Z,101595.24
2023-01-21T00:59:43.057Z,101597.20
2023-01-21T01:02:17.502Z,101595.77
2023-01-21T01:04:50.396Z,101598.02
2023-01-21T01:07:23.400Z,101603.48
2023-01-21T01:09:56.201Z,101606.05
2023-01-21T01:12:29.920Z,101613.34
2023-01-21T01:15:03.068Z,101618.20
2023-01-21T01:17:36.872Z,101621.32
2023-01-21T01:20:13.060Z,101620.67
2023-01-21T01:22:47.164Z,101620.80
2023-01-21T01:25:20.961Z,101617.41
2023-01-21T01:27:53.992Z,101617.55
2023-01-21T01:30:26.824Z,101616.63
2023-01-21T01:32:59.982Z,101614.09
2023-01-21T01:35:34.222Z,101610.95
2023-01-21T01:38:11.030Z,101603.34
2023-01-21T01:40:45.530Z,101607.02
2023-01-21T01:43:22.003Z,101607.03
2023-01-21T01:45:56.943Z,101613.23
2023-01-21T01:48:33.087Z,101610.97
2023-01-21T01:51:07.766Z,101619.05
2023-01-21T01:53:45.725Z,101616.90
2023-01-21T01:56:19.173Z,101609.91
2023-01-21T01:58:54.468Z,101613.92
2023-01-21T02:01:28.443Z,101624.06
2023-01-21T02:04:04.831Z,101622.34
2023-01-21T02:06:38.966Z,101607.17
2023-01-21T02:09:11.941Z,101609.16
2023-01-21T02:11:46.392Z,101604.71
2023-01-21T02:14:19.932Z,101605.61
2023-01-21T02:17:09.281Z,101615.38
2023-01-21T02:20:15.721Z,101612.70
2023-01-21T02:23:00.144Z,101610.75
2023-01-21T02:26:07.998Z,101608.55
2023-01-21T02:29:00.138Z,101616.56
2023-01-21T02:32:11.001Z,101608.23
2023-01-21T02:34:50.158Z,101604.62
2023-01-21T02:37:29.699Z,101592.84
2023-01-21T02:40:17.023Z,101585.98
2023-01-21T02:42:52.457Z,101582.83
2023-01-21T02:45:31.597Z,101589.80
2023-01-21T02:48:14.213Z,101595.14
2023-01-21T02:50:51.303Z,101585.86
2023-01-21T02:53:28.986Z,101584.88
2023-01-21T02:56:07.386Z,101577.06
2023-01-21T02:58:42.858Z,101585.75
2023-01-21T03:01:26.202Z,101589.45
2023-01-21T03:04:16.598Z,101590.48
2023-01-21T03:07:01.470Z,101593.41
2023-01-21T03:09:36.499Z,101587.74
2023-01-21T03:12:27.260Z,101586.38
2023-01-21T03:15:23.949Z,101578.36
2023-01-21T03:18:02.449Z,101588.83
2023-01-21T03:20:40.691Z,101594.98
2023-01-21T03:23:18.073Z,101594.06
2023-01-21T03:25:52.504Z,101587.50
2023-01-21T03:28:31.270Z,101584.20
2023-01-21T03:31:09.297Z,101588.76
2023-01-21T03:33:50.827Z,101586.63
2023-01-21T03:36:28.364Z,101584.53
2023-01-21T03:39:04.232Z,101585.95
2023-01-21T03:41:40.630Z,101581.42
2023-01-21T03:44:13.737Z,101587.58
2023-01-21T03:46:53.217Z,101585.32
2023-01-21T03:49:33.004Z,101589.52
2023-01-21T03:52:07.858Z,101577.77
2023-01-21T03:54:41.603Z,101567.37
2023-01-21T03:57:14.289Z,101565.41
2023-01-21T03:59:47.575Z,101557.95
2023-01-21T04:02:21.281Z,101549.41
2023-01-21T04:04:55.601Z,101555.36
2023-01-21T04:07:28.869Z,101556.20
2023-01-21T04:10:02.287Z,101556.18
2023-01-21T04:12:36.403Z,101553.90
2023-01-21T04:15:11.569Z,101550.50
2023-01-21T04:17:44.469Z,101544.48
2023-01-21T04:20:17.833Z,101549.11
2023-01-21T04:22:50.723Z,101543.88
2023-01-21T04:25:24.207Z,101538.02
2023-01-21T04:27:56.795Z,101535.67
2023-01-21T04:30:29.446Z,101539.98
2023-01-21T04:33:02.101Z,101538.14
2023-01-21T04:35:35.803Z,101537.38
2023-01-21T04:38:08.945Z,101541.77
2023-01-21T04:40:43.177Z,101540.71
2023-01-21T04:43:15.783Z,101541.52
2023-01-21T04:45:50.257Z,101534.66
2023-01-21T04:48:23.384Z,101530.49
2023-01-21T04:50:57.221Z,101530.50
2023-01-21T04:53:30.448Z,101531.89
2023-01-21T04:56:03.286Z,101531.81
2023-01-21T04:58:36.050Z,101522.42
2023-01-21T05:01:09.035Z,101532.59
2023-01-21T05:03:41.709Z,101533.63
2023-01-21T05:06:15.505Z,101525.48
2023-01-21T05:08:48.815Z,101525.44
2023-01-21T05:11:22.768Z,101525.41
2023-01-21T05:13:55.399Z,101526.75
2023-01-21T05:16:28.728Z,101526.95
2023-01-21T05:19:01.689Z,101529.58
2023-01-21T05:21:35.321Z,101531.06
2023-01-21T05:24:09.030Z,101528.56
2023-01-21T05:26:42.078Z,101533.63
2023-01-21T05:29:15.122Z,101541.02
2023-01-21T05:31:48.223Z,101537.34
2023-01-21T05:34:21.633Z,101537.54
2023-01-21T05:36:54.497Z,101542.58
2023-01-21T05:39:27.389Z,101545.02
2023-01-21T05:42:00.943Z,101538.59
2023-01-21T05:44:33.801Z,101537.10
2023-01-21T05:47:07.679Z,101544.27
2023-01-21T05:49:40.804Z,101535.16
2023-01-21T05:52:13.593Z,101541.34
2023-01-21T05:55:00.951Z,101537.45
2023-01-21T05:57:35.762Z,101535.73
2023-01-21T06:00:10.952Z,101541.02
2023-01-21T06:02:43.795Z,101540.67
2023-01-21T06:05:17.947Z,101543.23
2023-01-21T06:07:51.678Z,101549.19
2023-01-21T06:10:24.294Z,101542.87
2023-01-21T06:12:57.590Z,101539.87
2023-01-21T06:15:33.312Z,101540.29
2023-01-21T06:18:06.029Z,101542.52
2023-01-21T06:20:39.524Z,101538.02
2023-01-21T06:23:14.402Z,101543.16
2023-01-21T06:25:48.164Z,101536.59
2023-01-21T06:28:21.403Z,101542.52
2023-01-21T06:30:54.116Z,101537.31
2023-01-21T06:33:26.907Z,101535.52
2023-01-21T06:35:59.998Z,101533.81
2023-01-21T06:38:36.081Z,101529.09
2023-01-21T06:41:09.410Z,101533.99
2023-01-21T06:43:43.144Z,101523.75
2023-01-21T06:46:15.883Z,101519.16
2023-01-21T06:48:48.814Z,101521.65
2023-01-21T06:51:21.470Z,101516.97
2023-01-21T06:53:54.953Z,101510.79
2023-01-21T06:56:28.158Z,101501.05
2023-01-21T06:59:01.835Z,101497.08
2023-01-21T07:01:34.480Z,101494.80
2023-01-21T07:04:08.453Z,101493.13
2023-01-21T07:06:42.365Z,101496.94
2023-01-21T07:09:15.430Z,101492.50
2023-01-21T07:11:48.047Z,101494.36
2023-01-21T07:14:21.528Z,101486.20
2023-01-21T07:16:54.632Z,101483.94
2023-01-21T07:19:28.102Z,101483.72
2023-01-21T07:22:01.173Z,101485.06
2023-01-21T07:24:34.392Z,101488.67
2023-01-21T07:27:07.458Z,101489.90
2023-01-21T07:29:40.778Z,101483.72
2023-01-21T07:32:13.901Z,101493.20
2023-01-21T07:34:48.192Z,101491.10
2023-01-21T07:37:20.869Z,101497.23
2023-01-21T07:39:55.973Z,101491.51
2023-01-21T07:42:29.474Z,101490.54
2023-01-21T07:45:04.041Z,101487.73
2023-01-21T07:47:37.196Z,101486.80
2023-01-21T07:50:13.550Z,101483.69
2023-01-21T07:52:48.255Z,101475.88
2023-01-21T07:55:21.551Z,101478.73
2023-01-21T07:57:56.848Z,101475.13
2023-01-21T08:00:30.405Z,101467.06
2023-01-21T08:03:05.410Z,101462.52
2023-01-21T08:05:39.839Z,101459.36
2023-01-21T08:08:14.538Z,101451.19
2023-01-21T08:10:54.813Z,101446.81
2023-01-21T08:13:28.793Z,101440.02
2023-01-21T08:16:03.235Z,101431.84
2023-01-21T08:18:36.915Z,101431.80
2023-01-21T08:21:10.611Z,101414.79
2023-01-21T08:23:43.624Z,101403.36
2023-01-21T08:26:18.114Z,101393.11
2023-01-21T08:28:51.260Z,101394.54
2023-01-21T08:31:24.728Z,101383.98
2023-01-21T08:33:59.614Z,101387.71
2023-01-21T08:36:33.726Z,101388.07
2023-01-21T08:39:07.801Z,101391.06
2023-01-21T08:41:42.029Z,101391.80
2023-01-21T08:44:16.470Z,101397.00
2023-01-21T08:46:49.863Z,101391.35
2023-01-21T08:49:24.253Z,101391.39
2023-01-21T08:51:58.003Z,101398.07
2023-01-21T08:54:34.665Z,101400.67
2023-01-21T08:57:09.934Z,101398.01
2023-01-21T08:59:45.524Z,101400.27
2023-01-21T09:02:21.324Z,101404.98
2023-01-21T09:04:55.626Z,101397.73
2023-01-21T09:07:31.809Z,101402.09
2023-01-21T09:10:06.724Z,101400.02
2023-01-21T09:12:45.786Z,101408.05
2023-01-21T09:15:20.686Z,101407.64
2023-01-21T09:17:54.642Z,101420.52
2023-01-21T09:20:30.334Z,101440.06
2023-01-21T09:23:24.408Z,101463.52
2023-01-21T09:26:04.269Z,101469.15
2023-01-21T09:28:42.629Z,101477.10
2023-01-21T09:31:18.857Z,101476.84
2023-01-21T09:33:55.815Z,101473.16
2023-01-21T09:36:35.683Z,101472.94
2023-01-21T09:39:11.086Z,101463.77
2023-01-21T09:41:48.041Z,101458.54
2023-01-21T09:44:31.443Z,101463.20
2023-01-21T09:47:11.220Z,101456.59
2023-01-21T09:49:51.960Z,101458.56
2023-01-21T09:52:33.615Z,101459.13
2023-01-21T09:55:16.668Z,101464.36
2023-01-21T09:58:25.412Z,101463.23
2023-01-21T10:01:05.665Z,101459.80
2023-01-21T10:03:47.140Z,101452.95
2023-01-21T10:06:49.603Z,101457.76
2023-01-21T10:09:49.254Z,101448.35
2023-01-21T10:12:36.873Z,101452.17
2023-01-21T10:15:39.993Z,101445.57
2023-01-21T10:18:18.447Z,101444.88
2023-01-21T10:20:58.972Z,101443.52
2023-01-21T10:23:42.714Z,101440.67
2023-01-21T10:26:18.638Z,101438.05
2023-01-21T10:28:57.338Z,101434.85
2023-01-21T10:31:37.575Z,101430.98
2023-01-21T10:34:17.023Z,101423.16
2023-01-21T10:37:08.677Z,101421.69
2023-01-21T10:39:54.429Z,101425.69
2023-01-21T10:43:03.460Z,101421.48
2023-01-21T10:45:49.942Z,101423.64
2023-01-21T10:48:34.037Z,101419.88
2023-01-21T10:51:18.903Z,101424.08
2023-01-21T10:54:01.398Z,101419.95
2023-01-21T10:56:51.972Z,101414.41
2023-01-21T10:59:32.226Z,101421.30
2023-01-21T11:02:22.512Z,101414.27
2023-01-21T11:04:58.326Z,101411.05
2023-01-21T11:07:39.197Z,101412.44
2023-01-21T11:10:20.475Z,101408.45
2023-01-21T11:12:57.517Z,101413.55
2023-01-21T11:15:37.039Z,101409.84
2023-01-21T11:18:30.705Z,101410.73
2023-01-21T11:21:18.392Z,101407.77
2023-01-21T11:23:59.862Z,101409.91
2023-01-21T11:26:38.979Z,101410.54
2023-01-21T11:29:18.288Z,101410.77
2023-01-21T11:32:01.864Z,101414.89
2023-01-21T11:34:36.827Z,101411.84
2023-01-21T11:37:20.068Z,101416.59
2023-01-21T11:39:57.348Z,101409.30
2023-01-21T11:42:30.782Z,101421.16
2023-01-21T11:45:06.244Z,101419.10
2023-01-21T11:47:48.745Z,101419.67
2023-01-21T11:50:28.825Z,101421.88
2023-01-21T11:53:17.510Z,101420.63
2023-01-21T11:55:57.254Z,101425.67
2023-01-21T11:58:33.576Z,101421.11
2023-01-21T12:01:09.042Z,101419.67
2023-01-21T12:03:49.737Z,101424.86
2023-01-21T12:06:24.848Z,101421.48
2023-01-21T12:09:02.194Z,101421.05
2023-01-21T12:11:35.211Z,101420.89
2023-01-21T12:14:19.030Z,101424.20
2023-01-21T12:17:07.278Z,101429.88
2023-01-21T12:19:53.755Z,101426.70
2023-01-21T12:22:45.198Z,101421.85
2023-01-21T12:25:26.171Z,101422.52
2023-01-21T12:28:17.294Z,101425.02
2023-01-21T12:31:00.293Z,101431.28
2023-01-21T12:33:48.406Z,101424.91
2023-01-21T12:36:28.534Z,101429.29
2023-01-21T12:39:15.051Z,101426.59
2023-01-21T12:41:53.093Z,101436.53
2023-01-21T12:44:34.305Z,101430.19
2023-01-21T12:47:12.421Z,101429.71
2023-01-21T12:50:05.108Z,101437.39
2023-01-21T12:52:46.362Z,101436.92
2023-01-21T12:55:26.005Z,101441.92
2023-01-21T12:58:04.333Z,101436.39
2023-01-21T13:00:40.178Z,101446.31
2023-01-21T13:03:26.394Z,101448.91
2023-01-21T13:06:04.581Z,101446.88
2023-01-21T13:09:00.628Z,101448.27
2023-01-21T13:11:38.328Z,101451.69
2023-01-21T13:14:29.934Z,101449.89
2023-01-21T13:17:05.564Z,101458.17
2023-01-21T13:19:38.647Z,101457.27
2023-01-21T13:22:27.191Z,101458.72
2023-01-21T13:25:09.861Z,101463.52
2023-01-21T13:27:49.201Z,101467.19
2023-01-21T13:30:30.763Z,101473.67
2023-01-21T13:33:18.926Z,101473.30
2023-01-21T13:35:58.397Z,101479.98
2023-01-21T13:38:39.240Z,101484.11
2023-01-21T13:41:26.507Z,101485.40
2023-01-21T13:44:32.072Z,101493.17
2023-01-21T13:47:17.310Z,101491.21
2023-01-21T13:50:19.716Z,101499.60
2023-01-21T13:53:35.461Z,101504.92
2023-01-21T13:56:27.383Z,101508.05
2023-01-21T13:59:04.890Z,101509.05
2023-01-21T14:01:46.459Z,101511.11
2023-01-21T14:04:27.671Z,101513.70
2023-01-21T14:07:11.032Z,101519.52
2023-01-21T14:09:51.688Z,101519.83
2023-01-21T14:12:42.741Z,101524.13
2023-01-21T14:15:31.093Z,101527.77
2023-01-21T14:18:27.424Z,101526.34
2023-01-21T14:21:26.184Z,101528.82
2023-01-21T14:24:10.135Z,101530.31
2023-01-21T14:26:59.953Z,101532.52
2023-01-21T14:29:41.400Z,101536.95
2023-01-21T14:32:23.582Z,101537.17
2023-01-21T14:35:10.167Z,101539.02
2023-01-21T14:37:51.993Z,101543.06
2023-01-21T14:40:33.297Z,101544.09
2023-01-21T14:43:21.224Z,101543.90
2023-01-21T14:45:59.014Z,101553.79
2023-01-21T14:48:37.883Z,101560.40
2023-01-21T14:51:22.798Z,101566.55
2023-01-21T14:54:04.374Z,101575.46
2023-01-21T14:56:42.318Z,101579.00
2023-01-21T14:59:35.421Z,101584.18
2023-01-21T15:02:27.950Z,101582.52
2023-01-21T15:05:06.976Z,101584.72
2023-01-21T15:07:45.122Z,101589.42
2023-01-21T15:10:28.804Z,101597.85
2023-01-21T15:13:07.427Z,101599.90
2023-01-21T15:16:09.096Z,101606.11
2023-01-21T15:18:48.513Z,101608.01
2023-01-21T15:21:44.736Z,101615.48
2023-01-21T15:24:28.227Z,101618.98
2023-01-21T15:27:17.073Z,101619.77
2023-01-21T15:30:54.080Z,101624.13
2023-01-21T15:33:33.592Z,101631.08
2023-01-21T15:36:22.761Z,101631.91
2023-01-21T15:39:05.318Z,101637.48
2023-01-21T15:41:56.335Z,101639.54
2023-01-21T15:44:51.366Z,101640.58
2023-01-21T15:47:49.793Z,101644.26
2023-01-21T15:50:31.690Z,101652.00
2023-01-21T15:53:22.603Z,101654.98
2023-01-21T15:56:22.262Z,101662.21
2023-01-21T15:59:10.267Z,101665.36
2023-01-21T16:01:45.507Z,101668.05
2023-01-21T16:04:37.163Z,101669.29
2023-01-21T16:07:23.218Z,101678.41
2023-01-21T16:10:10.706Z,101684.90
2023-01-21T16:12:56.259Z,101682.44
2023-01-21T16:15:42.674Z,101688.33
2023-01-21T16:18:29.961Z,101692.34
2023-01-21T16:21:07.745Z,101691.79
2023-01-21T16:23:45.506Z,101693.98
2023-01-21T16:26:32.844Z,101693.62
2023-01-21T16:29:15.214Z,101697.17
2023-01-21T16:31:55.431Z,101702.90
2023-01-21T16:34:45.009Z,101704.48
2023-01-21T16:37:21.918Z,101710.11
2023-01-21T16:40:20.491Z,101715.05
2023-01-21T16:43:17.816Z,101714.39
2023-01-21T16:45:57.103Z,101717.56
2023-01-21T16:48:35.852Z,101721.20
2023-01-21T16:51:18.492Z,101724.19
2023-01-21T16:53:53.426Z,101728.95
2023-01-21T16:56:31.567Z,101727.64
2023-01-21T16:59:21.174Z,101735.48
2023-01-21T17:01:57.943Z,101734.29
2023-01-21T17:04:33.421Z,101744.52
2023-01-21T17:07:09.768Z,101746.84
2023-01-21T17:09:46.973Z,101752.38
2023-01-21T17:12:28.324Z,101755.58
2023-01-21T17:15:11.162Z,101756.17
2023-01-21T17:17:48.473Z,101762.91
2023-01-21T17:20:43.796Z,101764.46
2023-01-21T17:23:23.906Z,101772.45
2023-01-21T17:26:03.576Z,101776.65
2023-01-21T17:28:47.770Z,101780.09
2023-01-21T17:31:33.477Z,101782.52
2023-01-21T17:34:24.253Z,101789.77
2023-01-21T17:37:01.602Z,101795.16
2023-01-21T17:40:02.592Z,101796.68
2023-01-21T17:42:43.010Z,101805.40
2023-01-21T17:45:28.122Z,101807.95
2023-01-21T17:48:10.959Z,101812.27
2023-01-21T17:50:51.247Z,101819.11
2023-01-21T17:53:32.967Z,101821.83
2023-01-21T17:56:09.651Z,101826.91
2023-01-21T17:59:03.706Z,101832.66
2023-01-21T18:01:40.293Z,101835.59
2023-01-21T18:04:24.472Z,101834.90
2023-01-21T18:07:01.518Z,101845.69
2023-01-21T18:09:39.240Z,101844.42
2023-01-21T18:12:15.264Z,101853.73
2023-01-21T18:14:49.460Z,101856.90
2023-01-21T18:17:26.313Z,101859.23
2023-01-21T18:20:01.125Z,101864.17
2023-01-21T18:22:38.519Z,101865.84
2023-01-21T18:25:18.186Z,101869.41
2023-01-21T18:27:56.100Z,101867.75
2023-01-21T18:30:32.130Z,101872.05
2023-01-21T18:33:08.449Z,101873.20
2023-01-21T18:35:47.574Z,101878.31
2023-01-21T18:38:33.562Z,101883.52
2023-01-21T18:41:09.585Z,101883.18
2023-01-21T18:43:45.294Z,101887.97
2023-01-21T18:46:20.873Z,101887.66
2023-01-21T18:48:56.489Z,101893.38
2023-01-21T18:51:33.539Z,101899.48
2023-01-21T18:54:11.315Z,101898.73
2023-01-21T18:56:47.862Z,101896.66
2023-01-21T18:59:23.563Z,101897.03
2023-01-21T19:01:58.021Z,101905.22
2023-01-21T19:04:33.000Z,101904.30
2023-01-21T19:07:10.481Z,101905.57
2023-01-21T19:09:48.079Z,101904.55
2023-01-21T19:12:26.671Z,101906.60
2023-01-21T19:15:02.688Z,101906.79
2023-01-21T19:17:40.469Z,101911.40
2023-01-21T19:20:28.171Z,101914.79
2023-01-21T19:23:01.860Z,101914.39
2023-01-21T19:25:41.951Z,101918.11
2023-01-21T19:28:17.255Z,101925.36
2023-01-21T19:30:55.852Z,101929.34
2023-01-21T19:33:31.070Z,101930.30
2023-01-21T19:36:15.508Z,101935.20
2023-01-21T19:38:55.401Z,101937.88
2023-01-21T19:41:34.518Z,101938.51
2023-01-21T19:44:12.936Z,101943.16
2023-01-21T19:46:48.175Z,101950.45
2023-01-21T19:49:23.994Z,101956.50
2023-01-21T19:51:58.796Z,101956.39
2023-01-21T19:54:34.178Z,101962.66
2023-01-21T19:57:11.678Z,101964.92
2023-01-21T19:59:49.868Z,101968.59
2023-01-21T20:02:29.208Z,101975.17
2023-01-21T20:05:03.433Z,101977.63
2023-01-21T20:07:40.289Z,101981.48
2023-01-21T20:10:35.540Z,101984.20
2023-01-21T20:13:13.495Z,101988.91
2023-01-21T20:15:53.619Z,101991.48
2023-01-21T20:18:29.985Z,101994.46
2023-01-21T20:21:08.080Z,102002.42
2023-01-21T20:23:41.360Z,102006.62
2023-01-21T20:26:23.638Z,102014.33
2023-01-21T20:29:01.730Z,102017.28
2023-01-21T20:31:36.788Z,102023.59
2023-01-21T20:34:14.442Z,102022.26
2023-01-21T20:36:51.129Z,102028.42
2023-01-21T20:39:25.831Z,102030.72
2023-01-21T20:42:04.414Z,102031.10
2023-01-21T20:44:41.017Z,102033.00
2023-01-21T20:47:37.687Z,102039.46
2023-01-21T20:50:22.482Z,102041.80
2023-01-21T20:52:58.526Z,102045.37
2023-01-21T20:55:33.096Z,102046.85
2023-01-21T20:58:09.005Z,102049.01
2023-01-21T21:00:46.765Z,102048.31
2023-01-21T21:03:20.997Z,102049.83
2023-01-21T21:05:57.708Z,102051.20
2023-01-21T21:08:34.203Z,102054.04
2023-01-21T21:11:09.907Z,102054.19
2023-01-21T21:13:47.256Z,102062.09
2023-01-21T21:16:43.062Z,102064.85
2023-01-21T21:19:23.106Z,102068.67
2023-01-21T21:21:59.020Z,102064.59
2023-01-21T21:24:34.164Z,102065.97
2023-01-21T21:27:12.078Z,102069.98
2023-01-21T21:29:48.091Z,102073.98
2023-01-21T21:32:22.834Z,102077.18
2023-01-21T21:35:00.264Z,102076.45
2023-01-21T21:37:35.611Z,102083.98
2023-01-21T21:40:24.793Z,102082.06
2023-01-21T21:43:17.788Z,102084.36
2023-01-21T21:46:09.219Z,102085.23
2023-01-21T21:48:45.728Z,102088.41
2023-01-21T21:51:22.074Z,102091.36
2023-01-21T21:53:58.083Z,102094.76
2023-01-21T21:56:34.103Z,102098.54
2023-01-21T21:59:10.504Z,102100.70
2023-01-21T22:01:45.550Z,102101.21
2023-01-21T22:04:21.340Z,102101.59
2023-01-21T22:06:54.852Z,102104.12
2023-01-21T22:09:31.733Z,102102.83
2023-01-21T22:12:08.233Z,102106.05
2023-01-21T22:14:43.960Z,102110.70
2023-01-21T22:17:18.898Z,102109.68
2023-01-21T22:19:52.723Z,102113.84
2023-01-21T22:22:27.031Z,102114.07
2023-01-21T22:25:00.540Z,102120.67
2023-01-21T22:27:40.527Z,102122.39
2023-01-21T22:30:25.814Z,102126.45
2023-01-21T22:33:00.513Z,102130.42
2023-01-21T22:35:35.932Z,102137.08
2023-01-21T22:38:10.247Z,102134.36
2023-01-21T22:40:47.634Z,102138.12
2023-01-21T22:43:23.544Z,102138.38
2023-01-21T22:46:02.307Z,102142.54
2023-01-21T22:48:38.530Z,102144.28
2023-01-21T22:51:17.604Z,102144.88
2023-01-21T22:53:54.518Z,102149.70
2023-01-21T22:56:50.340Z,102152.30
2023-01-21T22:59:25.100Z,102149.75
2023-01-21T23:02:04.010Z,102154.91
2023-01-21T23:04:38.539Z,102156.14
2023-01-21T23:07:16.298Z,102156.52
2023-01-21T23:09:48.989Z,102156.98
2023-01-21T23:12:23.429Z,102161.71
2023-01-21T23:14:58.550Z,102163.52
2023-01-21T23:17:34.860Z,102167.61
2023-01-21T23:20:13.961Z,102171.66
2023-01-21T23:22:48.511Z,102173.41
2023-01-21T23:25:24.374Z,102176.57
2023-01-21T23:27:58.292Z,102176.81
2023-01-21T23:30:32.973Z,102181.21
2023-01-21T23:33:07.095Z,102182.79
2023-01-21T23:35:43.123Z,102189.77
2023-01-21T23:38:17.220Z,102183.16
2023-01-21T23:40:51.503Z,102186.41
2023-01-21T23:43:28.333Z,102184.48
2023-01-21T23:46:02.697Z,102186.48
2023-01-21T23:48:37.921Z,102187.61
2023-01-21T23:51:14.799Z,102191.91
2023-01-21T23:53:50.852Z,102192.52
2023-01-21T23:56:26.229Z,102193.06
2023-01-21T23:59:00.477Z,102195.53
